sensor_id;sensor_type;location;lat;lon;timestamp;temperature;humidity
23769;DHT22;12064;50.890;5.424;2024-03-17T00:08:30;16.30;99.90
23769;DHT22;12064;50.890;5.424;2024-03-17T00:17:21;16.30;99.90
23769;DHT22;12064;50.890;5.424;2024-03-17T00:26:11;16.20;99.90
23769;DHT22;12064;50.890;5.424;2024-03-17T00:35:02;16.20;99.90
23769;DHT22;12064;50.890;5.424;2024-03-17T00:43:53;16.20;99.90
23769;DHT22;12064;50.890;5.424;2024-03-17T00:52:43;16.20;99.90
23769;DHT22;12064;50.890;5.424;2024-03-17T01:01:34;16.20;99.90
23769;DHT22;12064;50.890;5.424;2024-03-17T01:10:25;16.10;99.90
23769;DHT22;12064;50.890;5.424;2024-03-17T01:19:17;16.10;99.90
23769;DHT22;12064;50.890;5.424;2024-03-17T01:28:07;16.10;99.90
23769;DHT22;12064;50.890;5.424;2024-03-17T01:36:58;16.10;99.90
23769;DHT22;12064;50.890;5.424;2024-03-17T01:45:48;16.10;99.90
23769;DHT22;12064;50.890;5.424;2024-03-17T01:54:39;16.10;99.90
23769;DHT22;12064;50.890;5.424;2024-03-17T02:03:30;16.10;99.90
23769;DHT22;12064;50.890;5.424;2024-03-17T02:12:21;16.00;99.90
23769;DHT22;12064;50.890;5.424;2024-03-17T02:21:15;16.00;99.90
23769;DHT22;12064;50.890;5.424;2024-03-17T02:30:06;16.00;99.90
23769;DHT22;12064;50.890;5.424;2024-03-17T02:39:00;16.00;99.90
23769;DHT22;12064;50.890;5.424;2024-03-17T02:48:09;16.00;99.90
23769;DHT22;12064;50.890;5.424;2024-03-17T02:57:01;16.00;99.90
23769;DHT22;12064;50.890;5.424;2024-03-17T03:05:52;16.00;99.90
23769;DHT22;12064;50.890;5.424;2024-03-17T03:14:42;16.00;99.90
23769;DHT22;12064;50.890;5.424;2024-03-17T03:23:33;16.00;99.90
23769;DHT22;12064;50.890;5.424;2024-03-17T03:32:24;16.00;99.90
23769;DHT22;12064;50.890;5.424;2024-03-17T03:41:15;16.00;99.90
23769;DHT22;12064;50.890;5.424;2024-03-17T03:50:10;15.90;99.90
23769;DHT22;12064;50.890;5.424;2024-03-17T03:59:01;15.90;99.90
23769;DHT22;12064;50.890;5.424;2024-03-17T04:07:51;15.90;99.90
23769;DHT22;12064;50.890;5.424;2024-03-17T04:16:42;15.90;99.90
23769;DHT22;12064;50.890;5.424;2024-03-17T04:25:33;15.90;99.90
23769;DHT22;12064;50.890;5.424;2024-03-17T04:34:23;15.80;99.90
23769;DHT22;12064;50.890;5.424;2024-03-17T04:43:14;15.80;99.90
23769;DHT22;12064;50.890;5.424;2024-03-17T04:52:05;15.80;99.90
23769;DHT22;12064;50.890;5.424;2024-03-17T05:00:57;15.80;99.90
23769;DHT22;12064;50.890;5.424;2024-03-17T05:09:48;15.80;99.90
23769;DHT22;12064;50.890;5.424;2024-03-17T05:18:40;15.80;99.90
23769;DHT22;12064;50.890;5.424;2024-03-17T05:27:31;15.80;99.90
23769;DHT22;12064;50.890;5.424;2024-03-17T05:36:23;15.80;99.90
23769;DHT22;12064;50.890;5.424;2024-03-17T05:45:14;15.80;99.90
23769;DHT22;12064;50.890;5.424;2024-03-17T05:54:05;15.70;99.90
23769;DHT22;12064;50.890;5.424;2024-03-17T06:02:55;15.80;99.90
23769;DHT22;12064;50.890;5.424;2024-03-17T06:11:46;15.80;99.90
23769;DHT22;12064;50.890;5.424;2024-03-17T06:20:40;15.80;99.90
23769;DHT22;12064;50.890;5.424;2024-03-17T06:29:35;15.80;99.90
23769;DHT22;12064;50.890;5.424;2024-03-17T06:38:25;15.70;99.90
23769;DHT22;12064;50.890;5.424;2024-03-17T06:47:16;15.70;99.90
23769;DHT22;12064;50.890;5.424;2024-03-17T06:56:07;15.50;99.90
23769;DHT22;12064;50.890;5.424;2024-03-17T07:04:57;15.60;99.90
23769;DHT22;12064;50.890;5.424;2024-03-17T07:13:48;15.70;99.90
23769;DHT22;12064;50.890;5.424;2024-03-17T07:22:40;15.70;99.90
23769;DHT22;12064;50.890;5.424;2024-03-17T07:31:31;15.70;99.90
23769;DHT22;12064;50.890;5.424;2024-03-17T07:40:22;15.80;99.90
23769;DHT22;12064;50.890;5.424;2024-03-17T07:49:12;15.80;99.90
23769;DHT22;12064;50.890;5.424;2024-03-17T07:58:05;15.80;99.90
23769;DHT22;12064;50.890;5.424;2024-03-17T08:06:57;15.80;99.90
23769;DHT22;12064;50.890;5.424;2024-03-17T08:15:56;16.00;99.90
23769;DHT22;12064;50.890;5.424;2024-03-17T08:24:46;16.00;99.90
23769;DHT22;12064;50.890;5.424;2024-03-17T08:33:37;16.00;99.90
23769;DHT22;12064;50.890;5.424;2024-03-17T08:42:28;16.00;99.90
23769;DHT22;12064;50.890;5.424;2024-03-17T08:51:18;16.00;99.90
23769;DHT22;12064;50.890;5.424;2024-03-17T09:00:09;16.10;99.90
23769;DHT22;12064;50.890;5.424;2024-03-17T09:09:00;16.20;99.90
23769;DHT22;12064;50.890;5.424;2024-03-17T09:17:53;16.30;99.90
23769;DHT22;12064;50.890;5.424;2024-03-17T09:26:43;16.40;99.90
23769;DHT22;12064;50.890;5.424;2024-03-17T09:35:34;16.40;99.90
23769;DHT22;12064;50.890;5.424;2024-03-17T09:44:25;16.50;99.90
23769;DHT22;12064;50.890;5.424;2024-03-17T09:53:17;16.60;99.90
23769;DHT22;12064;50.890;5.424;2024-03-17T10:02:16;16.70;99.90
23769;DHT22;12064;50.890;5.424;2024-03-17T10:11:08;16.80;99.90
23769;DHT22;12064;50.890;5.424;2024-03-17T10:20:15;16.80;99.90
23769;DHT22;12064;50.890;5.424;2024-03-17T10:29:29;16.80;99.90
23769;DHT22;12064;50.890;5.424;2024-03-17T10:38:23;16.90;99.90
23769;DHT22;12064;50.890;5.424;2024-03-17T10:47:24;16.90;99.90
23769;DHT22;12064;50.890;5.424;2024-03-17T10:56:16;16.90;99.90
23769;DHT22;12064;50.890;5.424;2024-03-17T11:05:14;16.90;99.90
23769;DHT22;12064;50.890;5.424;2024-03-17T11:14:17;17.00;99.90
23769;DHT22;12064;50.890;5.424;2024-03-17T11:23:26;17.00;99.90
23769;DHT22;12064;50.890;5.424;2024-03-17T11:32:27;17.10;99.90
23769;DHT22;12064;50.890;5.424;2024-03-17T11:41:44;17.10;99.90
23769;DHT22;12064;50.890;5.424;2024-03-17T11:50:38;17.20;99.90
23769;DHT22;12064;50.890;5.424;2024-03-17T11:59:29;17.20;99.90
23769;DHT22;12064;50.890;5.424;2024-03-17T12:08:22;17.20;99.90
23769;DHT22;12064;50.890;5.424;2024-03-17T12:17:22;17.30;99.90
23769;DHT22;12064;50.890;5.424;2024-03-17T12:26:16;17.30;99.90
23769;DHT22;12064;50.890;5.424;2024-03-17T12:35:13;17.30;99.90
23769;DHT22;12064;50.890;5.424;2024-03-17T12:44:04;17.30;99.80
23769;DHT22;12064;50.890;5.424;2024-03-17T12:52:55;17.40;99.70
23769;DHT22;12064;50.890;5.424;2024-03-17T13:01:46;17.50;99.50
23769;DHT22;12064;50.890;5.424;2024-03-17T13:10:37;17.50;99.60
23769;DHT22;12064;50.890;5.424;2024-03-17T13:19:27;17.50;99.60
23769;DHT22;12064;50.890;5.424;2024-03-17T13:28:18;17.50;99.50
23769;DHT22;12064;50.890;5.424;2024-03-17T13:37:09;17.50;99.50
23769;DHT22;12064;50.890;5.424;2024-03-17T13:45:59;17.60;99.40
23769;DHT22;12064;50.890;5.424;2024-03-17T13:54:50;17.60;99.40
23769;DHT22;12064;50.890;5.424;2024-03-17T14:03:40;17.60;99.30
23769;DHT22;12064;50.890;5.424;2024-03-17T14:12:32;17.60;99.20
23769;DHT22;12064;50.890;5.424;2024-03-17T14:21:23;17.70;99.30
23769;DHT22;12064;50.890;5.424;2024-03-17T14:30:16;17.70;99.20
23769;DHT22;12064;50.890;5.424;2024-03-17T14:39:07;17.70;99.20
23769;DHT22;12064;50.890;5.424;2024-03-17T14:47:58;17.70;99.10
23769;DHT22;12064;50.890;5.424;2024-03-17T14:56:49;17.70;99.00
23769;DHT22;12064;50.890;5.424;2024-03-17T15:05:39;17.80;98.90
23769;DHT22;12064;50.890;5.424;2024-03-17T15:14:30;17.80;98.80
23769;DHT22;12064;50.890;5.424;2024-03-17T15:23:24;17.80;98.70
23769;DHT22;12064;50.890;5.424;2024-03-17T15:32:22;17.80;98.70
23769;DHT22;12064;50.890;5.424;2024-03-17T15:41:13;17.80;98.60
23769;DHT22;12064;50.890;5.424;2024-03-17T15:50:04;17.80;98.60
23769;DHT22;12064;50.890;5.424;2024-03-17T15:58:55;17.90;98.40
23769;DHT22;12064;50.890;5.424;2024-03-17T16:07:46;17.90;98.30
23769;DHT22;12064;50.890;5.424;2024-03-17T16:16:37;17.90;98.10
23769;DHT22;12064;50.890;5.424;2024-03-17T16:25:30;17.90;98.10
23769;DHT22;12064;50.890;5.424;2024-03-17T16:34:21;17.90;98.20
23769;DHT22;12064;50.890;5.424;2024-03-17T16:43:46;17.90;98.40
23769;DHT22;12064;50.890;5.424;2024-03-17T16:52:40;17.90;98.50
23769;DHT22;12064;50.890;5.424;2024-03-17T17:01:31;17.90;98.60
23769;DHT22;12064;50.890;5.424;2024-03-17T17:10:22;17.80;98.70
23769;DHT22;12064;50.890;5.424;2024-03-17T17:19:13;17.80;98.70
23769;DHT22;12064;50.890;5.424;2024-03-17T17:28:05;17.80;98.80
23769;DHT22;12064;50.890;5.424;2024-03-17T17:36:56;17.70;98.90
23769;DHT22;12064;50.890;5.424;2024-03-17T17:45:47;17.70;99.00
23769;DHT22;12064;50.890;5.424;2024-03-17T17:54:37;17.70;99.10
23769;DHT22;12064;50.890;5.424;2024-03-17T18:03:28;17.70;99.20
23769;DHT22;12064;50.890;5.424;2024-03-17T18:12:19;17.70;99.20
23769;DHT22;12064;50.890;5.424;2024-03-17T18:21:11;17.70;99.30
23769;DHT22;12064;50.890;5.424;2024-03-17T18:30:02;17.60;99.40
23769;DHT22;12064;50.890;5.424;2024-03-17T18:38:52;17.60;99.60
23769;DHT22;12064;50.890;5.424;2024-03-17T18:47:44;17.60;99.60
23769;DHT22;12064;50.890;5.424;2024-03-17T18:56:36;17.60;99.70
23769;DHT22;12064;50.890;5.424;2024-03-17T19:05:29;17.60;99.70
23769;DHT22;12064;50.890;5.424;2024-03-17T19:14:23;17.60;99.80
23769;DHT22;12064;50.890;5.424;2024-03-17T19:23:14;17.50;99.80
23769;DHT22;12064;50.890;5.424;2024-03-17T19:32:05;17.50;99.90
23769;DHT22;12064;50.890;5.424;2024-03-17T19:40:59;17.50;99.90
23769;DHT22;12064;50.890;5.424;2024-03-17T19:49:50;17.50;99.90
23769;DHT22;12064;50.890;5.424;2024-03-17T19:58:42;17.50;99.90
23769;DHT22;12064;50.890;5.424;2024-03-17T20:07:33;17.40;99.90
23769;DHT22;12064;50.890;5.424;2024-03-17T20:16:24;17.40;99.90
23769;DHT22;12064;50.890;5.424;2024-03-17T20:25:21;17.40;99.90
23769;DHT22;12064;50.890;5.424;2024-03-17T20:34:11;17.40;99.90
23769;DHT22;12064;50.890;5.424;2024-03-17T20:43:02;17.40;99.90
23769;DHT22;12064;50.890;5.424;2024-03-17T20:51:53;17.40;99.90
23769;DHT22;12064;50.890;5.424;2024-03-17T21:00:46;17.40;99.90
23769;DHT22;12064;50.890;5.424;2024-03-17T21:09:41;17.40;99.90
23769;DHT22;12064;50.890;5.424;2024-03-17T21:18:32;17.40;99.90
23769;DHT22;12064;50.890;5.424;2024-03-17T21:27:22;17.30;99.90
23769;DHT22;12064;50.890;5.424;2024-03-17T21:36:15;17.30;99.90
23769;DHT22;12064;50.890;5.424;2024-03-17T21:45:07;17.30;99.90
23769;DHT22;12064;50.890;5.424;2024-03-17T21:53:59;17.30;99.90
23769;DHT22;12064;50.890;5.424;2024-03-17T22:02:49;17.30;99.90
23769;DHT22;12064;50.890;5.424;2024-03-17T22:11:40;17.20;99.90
23769;DHT22;12064;50.890;5.424;2024-03-17T22:20:30;17.30;99.90
23769;DHT22;12064;50.890;5.424;2024-03-17T22:29:21;17.20;99.90
23769;DHT22;12064;50.890;5.424;2024-03-17T22:38:12;17.20;99.90
23769;DHT22;12064;50.890;5.424;2024-03-17T22:47:03;17.20;99.90
23769;DHT22;12064;50.890;5.424;2024-03-17T22:55:54;17.20;99.90
23769;DHT22;12064;50.890;5.424;2024-03-17T23:04:45;17.20;99.90
23769;DHT22;12064;50.890;5.424;2024-03-17T23:13:37;17.10;99.90
23769;DHT22;12064;50.890;5.424;2024-03-17T23:22:28;17.20;99.90
23769;DHT22;12064;50.890;5.424;2024-03-17T23:31:19;17.10;99.90
23769;DHT22;12064;50.890;5.424;2024-03-17T23:40:10;17.10;99.90
23769;DHT22;12064;50.890;5.424;2024-03-17T23:49:02;17.10;99.90
23769;DHT22;12064;50.890;5.424;2024-03-17T23:57:54;17.10;99.90
